createdAt,value
2023-04-18T12:34:35.337Z,60.7973
2023-04-18T12:35:36.319Z,59.5026
2023-04-18T12:36:37.353Z,57.1481
2023-04-18T12:37:38.362Z,59.3913
2023-04-18T12:38:39.370Z,57.9182
2023-04-18T12:39:40.314Z,60.1581
2023-04-18T12:40:41.289Z,61.0304
2023-04-18T12:41:42.255Z,60.6258
2023-04-18T12:42:43.221Z,59.1265
2023-04-18T12:43:44.212Z,59.3844
2023-04-18T12:44:46.956Z,60.8419
2023-04-18T12:45:46.326Z,58.8746
2023-04-18T12:46:47.351Z,60.3906
2023-04-18T12:47:48.393Z,59.9540
2023-04-18T12:48:49.378Z,57.8419
2023-04-18T12:49:50.438Z,58.1459
2023-04-18T12:50:51.374Z,54.9531
2023-04-18T12:51:52.379Z,52.9042
2023-04-18T12:52:53.429Z,57.3037
2023-04-18T12:53:54.405Z,58.5026
2023-04-18T12:54:55.362Z,60.0805
2023-04-18T12:55:56.351Z,58.1301
2023-04-18T12:56:57.327Z,57.6539
2023-04-18T12:57:58.369Z,56.5911
2023-04-18T12:58:59.300Z,57.0519
2023-04-18T13:00:00.310Z,56.0786
2023-04-18T13:01:01.309Z,54.4726
2023-04-18T13:02:02.317Z,56.3178
2023-04-18T13:03:03.499Z,55.9229
2023-04-18T13:04:12.447Z,58.4840
2023-04-18T13:05:06.341Z,59.4266
2023-04-18T13:06:08.410Z,58.8008
2023-04-18T13:07:09.337Z,58.5475
2023-04-18T13:08:17.054Z,56.5616
2023-04-18T13:09:12.363Z,55.6370
2023-04-18T13:10:13.453Z,53.6468
2023-04-18T13:11:14.471Z,52.5100
2023-04-18T13:12:15.410Z,55.1275
2023-04-18T13:13:16.480Z,57.9066
2023-04-18T13:14:17.465Z,59.7641
2023-04-18T13:15:18.428Z,59.3176
2023-04-18T13:16:19.491Z,58.3685
2023-04-18T13:17:20.490Z,54.1517
2023-04-18T13:18:21.473Z,55.1368
2023-04-18T13:19:22.415Z,53.3606
2023-04-18T13:20:23.493Z,52.0586
2023-04-18T13:21:24.421Z,56.0021
2023-04-18T13:22:25.412Z,55.7365
2023-04-18T13:23:26.419Z,53.9580
2023-04-18T13:24:27.383Z,54.1647
2023-04-18T13:25:28.390Z,52.6172
2023-04-18T13:26:29.336Z,55.4744
2023-04-18T13:27:30.317Z,56.2501
2023-04-18T13:28:31.009Z,56.9094
2023-04-18T13:29:31.197Z,56.2225
2023-04-18T13:30:32.038Z,54.3262
2023-04-18T13:31:32.827Z,53.6224
2023-04-18T13:32:33.676Z,53.5204
2023-04-18T13:33:34.396Z,55.4489
2023-04-18T13:34:35.129Z,55.3689
2023-04-18T13:35:35.889Z,52.1313
2023-04-18T13:36:36.635Z,50.3969
2023-04-18T13:37:37.630Z,53.0624
2023-04-18T13:38:38.400Z,52.4190
2023-04-18T13:39:39.644Z,52.1266
2023-04-18T13:40:40.361Z,49.8871
2023-04-18T13:41:41.131Z,50.7958
2023-04-18T13:42:41.836Z,52.4909
2023-04-18T13:43:42.829Z,53.6051
2023-04-18T13:44:43.583Z,50.0885
2023-04-18T13:45:44.439Z,51.1399
2023-04-18T13:46:45.417Z,52.3895
2023-04-18T13:47:46.131Z,47.7973
2023-04-18T13:48:46.887Z,48.5818
2023-04-18T13:49:47.601Z,49.5247
2023-04-18T13:50:48.344Z,51.0497
2023-04-18T13:51:49.115Z,49.3846
2023-04-18T13:52:49.808Z,51.2481
2023-04-18T13:53:50.579Z,51.0320
2023-04-18T13:54:51.343Z,51.7595
2023-04-18T13:55:52.061Z,51.7916
2023-04-18T13:56:52.803Z,51.4594
2023-04-18T13:57:53.561Z,52.0592
2023-04-18T13:58:54.290Z,51.7310
2023-04-18T13:59:55.010Z,50.4395
2023-04-18T14:00:56.318Z,51.2328
2023-04-18T14:01:57.167Z,50.3961
2023-04-18T14:02:58.059Z,47.8480
2023-04-18T14:03:59.037Z,46.9921
2023-04-18T14:05:00.037Z,46.4191
2023-04-18T14:06:00.859Z,47.2173
2023-04-18T14:07:01.659Z,47.0708
2023-04-18T14:08:02.397Z,47.5962
2023-04-18T14:09:03.369Z,47.7066
2023-04-18T14:10:04.106Z,47.1586
2023-04-18T14:11:04.873Z,45.9789
2023-04-18T14:12:05.593Z,44.8508
2023-04-18T14:13:06.334Z,47.4323
2023-04-18T14:14:07.073Z,47.2116
2023-04-18T14:15:07.890Z,47.3284
2023-04-18T14:16:08.686Z,47.0416
2023-04-18T14:17:09.426Z,48.1966
2023-04-18T14:18:10.205Z,47.5377
2023-04-18T14:19:11.036Z,46.6410
2023-04-18T14:20:11.818Z,45.5756
2023-04-18T14:21:12.592Z,47.2777
2023-04-18T14:22:14.375Z,49.3641
2023-04-18T14:23:15.100Z,46.9468
2023-04-18T14:24:15.870Z,48.3775
2023-04-18T14:25:16.615Z,46.2133
2023-04-18T14:26:17.358Z,44.9709
2023-04-18T14:27:18.105Z,44.8415
2023-04-18T14:28:18.844Z,44.9323
2023-04-18T14:29:19.582Z,47.8952
2023-04-18T14:30:20.318Z,47.3615
2023-04-18T14:31:21.125Z,50.3651
2023-04-18T14:32:21.902Z,52.8184
2023-04-18T14:33:22.633Z,53.5610
2023-04-18T14:34:23.390Z,51.4230
2023-04-18T14:35:24.118Z,49.8306
2023-04-18T14:36:24.854Z,48.8525
2023-04-18T14:37:25.613Z,49.8787
2023-04-18T14:38:26.346Z,49.6309
2023-04-18T14:39:27.119Z,49.5069
2023-04-18T14:40:27.888Z,50.4443
2023-04-18T14:41:28.631Z,48.2469
2023-04-18T14:42:29.410Z,46.1325
2023-04-18T14:43:30.156Z,47.4330
2023-04-18T14:44:30.949Z,49.2255
2023-04-18T14:45:31.693Z,49.5257
2023-04-18T14:46:32.489Z,47.9574
2023-04-18T14:47:33.274Z,47.4475
2023-04-18T14:48:34.010Z,46.8626
2023-04-18T14:49:34.758Z,47.3189
2023-04-18T14:50:35.501Z,47.3465
2023-04-18T14:51:36.306Z,45.9439
2023-04-18T14:52:37.058Z,49.5048
2023-04-18T14:53:37.805Z,51.2756
2023-04-18T14:54:38.581Z,52.5258
2023-04-18T14:55:39.317Z,51.5572
2023-04-18T14:56:40.178Z,47.6080
2023-04-18T14:57:40.939Z,47.9235
2023-04-18T14:58:41.696Z,49.9385
2023-04-18T14:59:42.480Z,48.3975
2023-04-18T15:00:43.218Z,47.6235
2023-04-18T15:01:43.974Z,45.9653
2023-04-18T15:02:44.987Z,46.6031
2023-04-18T15:03:46.007Z,44.0789
2023-04-18T15:04:46.976Z,46.1148
2023-04-18T15:05:47.756Z,48.0735
2023-04-18T15:06:48.543Z,47.7617
2023-04-18T15:07:49.275Z,47.0887
2023-04-18T15:08:50.018Z,45.0551
2023-04-18T15:09:50.806Z,43.6199
2023-04-18T15:10:51.570Z,44.4678
2023-04-18T15:11:59.846Z,45.5078
2023-04-18T15:13:00.586Z,42.2182
2023-04-18T15:14:01.807Z,43.8604
2023-04-18T15:15:02.559Z,44.6760
2023-04-18T15:16:03.383Z,45.1598
2023-04-18T15:17:04.162Z,44.9605
2023-04-18T15:18:04.992Z,44.9452
2023-04-18T15:19:05.707Z,45.5783
2023-04-18T15:20:06.477Z,46.2921
2023-04-18T15:21:07.208Z,46.3302
2023-04-18T15:22:07.949Z,46.8203
2023-04-18T15:23:08.693Z,45.9499
2023-04-18T15:24:09.450Z,47.0568
2023-04-18T15:25:10.278Z,44.7915
2023-04-18T15:26:10.990Z,45.8309
2023-04-18T15:28:12.106Z,48.4414
2023-04-18T15:29:14.364Z,45.6432
2023-04-18T15:30:15.108Z,46.4068
2023-04-18T15:31:15.986Z,49.2052
2023-04-18T15:32:16.875Z,44.7604
2023-04-18T15:33:17.577Z,44.9831
2023-04-18T15:34:18.321Z,46.0854
2023-04-18T15:35:19.078Z,44.4143
2023-04-18T15:36:19.838Z,46.4343
2023-04-18T15:37:20.582Z,48.3159
2023-04-18T15:38:21.325Z,46.3708
2023-04-18T15:39:22.044Z,47.1060
2023-04-18T15:40:22.863Z,48.8723
2023-04-18T15:41:23.650Z,51.3094
2023-04-18T15:42:24.409Z,52.0785
2023-04-18T15:43:25.202Z,51.2614
2023-04-18T15:44:25.965Z,50.8950
2023-04-18T15:45:26.785Z,50.0177
2023-04-18T15:46:27.549Z,50.4034
2023-04-18T15:47:28.293Z,50.6460
2023-04-18T15:48:29.078Z,51.0345
2023-04-18T15:49:29.857Z,47.5941
2023-04-18T15:50:32.160Z,46.8954
2023-04-18T15:51:31.651Z,47.5535
2023-04-18T15:52:32.460Z,48.3973
2023-04-18T15:53:33.247Z,50.5738
2023-04-18T15:54:34.025Z,45.5696
2023-04-18T15:55:34.827Z,47.2154
2023-04-18T15:56:35.572Z,45.6151
2023-04-18T15:57:36.355Z,46.0417
2023-04-18T15:58:37.115Z,48.5624
2023-04-18T15:59:37.927Z,46.3757
2023-04-18T16:00:43.186Z,48.0507
2023-04-18T16:01:45.835Z,48.7393
2023-04-18T16:02:47.124Z,49.4092
2023-04-18T16:03:48.072Z,48.7972
2023-04-18T16:04:48.884Z,48.3441
2023-04-18T16:05:49.648Z,46.8740
2023-04-18T16:06:50.425Z,47.6758
2023-04-18T16:07:51.254Z,50.1047
2023-04-18T16:08:52.007Z,49.8333
2023-04-18T16:09:52.828Z,50.9799
2023-04-18T16:10:53.599Z,53.5662
2023-04-18T16:11:54.386Z,54.4258
2023-04-18T16:12:55.157Z,54.2037
2023-04-18T16:13:55.947Z,54.7018
2023-04-18T16:14:56.702Z,52.3666
2023-04-18T16:15:57.746Z,51.3725
2023-04-18T16:16:58.547Z,53.1129
2023-04-18T16:17:59.377Z,51.3041
2023-04-18T16:19:00.124Z,54.7229
2023-04-18T16:20:00.867Z,55.1498
2023-04-18T16:21:01.765Z,53.4595
2023-04-18T16:22:02.531Z,51.2318
2023-04-18T16:23:03.279Z,50.0031
2023-04-18T16:24:04.292Z,51.7033
2023-04-18T16:25:05.083Z,52.6165
2023-04-18T16:26:05.888Z,52.8559
2023-04-18T16:27:06.630Z,52.0142
2023-04-18T16:28:07.397Z,52.9944
2023-04-18T16:29:08.189Z,54.1520
2023-04-18T16:30:08.986Z,53.8295
2023-04-18T16:31:09.994Z,53.9842
2023-04-18T16:32:10.761Z,53.9204
2023-04-18T16:33:11.627Z,53.6145
2023-04-18T16:34:12.511Z,53.0329
2023-04-18T16:35:13.378Z,52.1158
2023-04-18T16:36:14.473Z,53.0529
2023-04-18T16:37:15.225Z,52.3472
2023-04-18T16:38:16.023Z,51.7229
2023-04-18T16:39:16.846Z,53.0723
2023-04-18T16:40:17.624Z,53.8449
2023-04-18T16:41:18.414Z,54.9424
2023-04-18T16:42:19.196Z,53.3471
2023-04-18T16:43:19.948Z,54.3723
2023-04-18T16:44:20.720Z,52.5219
2023-04-18T16:45:21.474Z,52.1223
2023-04-18T16:46:22.322Z,52.7625
2023-04-18T16:47:23.111Z,52.7205
2023-04-18T16:48:23.899Z,52.6363
2023-04-18T16:49:24.686Z,51.9391
2023-04-18T16:50:25.500Z,50.4621
2023-04-18T16:51:26.317Z,52.8726
2023-04-18T16:52:27.105Z,52.9356
2023-04-18T16:53:28.206Z,53.2296
2023-04-18T16:54:28.962Z,52.8575
2023-04-18T16:55:29.759Z,53.0875
2023-04-18T16:56:30.726Z,53.8021
2023-04-18T16:57:31.508Z,52.8939
2023-04-18T16:58:32.269Z,53.7063
2023-04-18T16:59:33.058Z,53.3154
2023-04-18T17:00:33.821Z,54.5410
2023-04-18T17:01:34.705Z,53.7934
2023-04-18T17:02:35.522Z,53.0293
2023-04-18T17:03:36.798Z,53.6978
2023-04-18T17:04:37.756Z,55.6180
2023-04-18T17:05:38.573Z,54.3049
2023-04-18T17:06:39.398Z,55.4103
2023-04-18T17:07:40.174Z,55.5352
2023-04-18T17:08:40.980Z,55.7735
2023-04-18T17:09:41.734Z,55.4314
2023-04-18T17:10:42.542Z,55.3673
2023-04-18T17:11:43.482Z,56.2757
2023-04-18T17:12:44.294Z,56.3649
2023-04-18T17:13:45.054Z,56.8572
2023-04-18T17:14:45.854Z,56.8790
2023-04-18T17:15:46.699Z,57.1073
2023-04-18T17:16:47.736Z,57.3130
2023-04-18T17:17:48.953Z,58.3757
2023-04-18T17:18:49.963Z,58.2727
2023-04-18T17:19:50.729Z,57.3964
2023-04-18T17:20:51.517Z,58.3595
2023-04-18T17:21:52.351Z,58.1678
2023-04-18T17:22:53.117Z,58.4604
2023-04-18T17:23:53.893Z,58.8636
2023-04-18T17:24:54.676Z,57.9924
2023-04-18T17:25:55.780Z,58.8770
2023-04-18T17:26:56.570Z,59.0030
2023-04-18T17:27:57.413Z,58.6539
2023-04-18T17:28:57.309Z,59.2486
2023-04-18T17:29:58.086Z,59.1693
2023-04-18T17:30:59.115Z,59.6082
2023-04-18T17:31:59.910Z,59.8600
2023-04-18T17:33:00.712Z,59.4143
2023-04-18T17:34:01.596Z,60.2200
2023-04-18T17:35:02.351Z,60.4230
2023-04-18T17:36:04.319Z,61.0829
2023-04-18T17:37:03.234Z,61.1856
2023-04-18T17:38:04.024Z,61.0291
2023-04-18T17:39:04.805Z,61.0534
2023-04-18T17:40:05.588Z,61.3152
2023-04-18T17:41:06.370Z,61.4855
2023-04-18T17:42:07.172Z,61.7419
2023-04-18T17:43:07.958Z,61.8394
2023-04-18T17:44:08.836Z,61.6375
2023-04-18T17:45:09.603Z,61.9960
2023-04-18T17:46:17.490Z,61.5964
2023-04-18T17:47:18.401Z,61.9384
2023-04-18T17:48:26.930Z,62.4444
2023-04-18T17:49:20.637Z,63.0260
2023-04-18T17:50:21.414Z,62.9868
2023-04-18T17:51:22.426Z,62.9497
2023-04-18T17:52:23.227Z,62.1846
2023-04-18T17:53:24.034Z,62.7227
2023-04-18T17:54:24.833Z,62.7701
2023-04-18T17:55:25.637Z,62.4296
2023-04-18T17:56:26.423Z,63.2370
2023-04-18T17:57:27.235Z,63.6748
2023-04-18T17:58:27.995Z,63.8359
2023-04-18T17:59:28.773Z,63.2673
2023-04-18T18:00:29.557Z,63.9667
2023-04-18T18:01:30.474Z,64.1270
2023-04-18T18:02:31.471Z,64.2979
2023-04-18T18:03:32.498Z,64.7627
2023-04-18T18:04:33.467Z,65.0010
2023-04-18T18:05:34.341Z,65.3436
2023-04-18T18:06:35.119Z,65.7752
2023-04-18T18:07:35.906Z,65.9293
2023-04-18T18:08:37.072Z,65.9724
2023-04-18T18:09:37.867Z,66.1007
2023-04-18T18:10:38.617Z,66.4442
2023-04-18T18:11:39.384Z,66.7111
2023-04-18T18:12:40.381Z,66.8903
2023-04-18T18:13:41.180Z,67.0083
2023-04-18T18:14:41.994Z,67.1486
2023-04-18T18:15:42.744Z,67.2244
2023-04-18T18:16:43.567Z,66.9002
2023-04-18T18:17:44.407Z,67.3669
2023-04-18T18:18:45.235Z,67.5202
2023-04-18T18:19:46.028Z,67.6877
2023-04-18T18:20:46.793Z,67.9480
2023-04-18T18:21:47.588Z,68.1718
2023-04-18T18:22:48.373Z,68.4561
2023-04-18T18:23:49.153Z,68.4034
2023-04-18T18:24:49.928Z,68.0756
2023-04-18T18:25:50.711Z,68.2787
2023-04-18T18:26:51.832Z,68.7300
2023-04-18T18:27:52.676Z,68.6827
2023-04-18T18:28:53.418Z,68.9261
2023-04-18T18:29:54.198Z,69.0856
2023-04-18T18:30:54.990Z,69.1190
2023-04-18T18:31:55.721Z,69.1524
2023-04-18T18:32:56.528Z,69.1531
2023-04-18T18:33:57.312Z,69.2018
2023-04-18T18:34:58.110Z,69.4521
2023-04-18T18:35:58.880Z,69.3596
2023-04-18T18:36:59.653Z,69.4803
2023-04-18T18:38:00.702Z,69.3090
2023-04-18T18:39:01.485Z,69.5715
2023-04-18T18:40:02.261Z,69.7493
2023-04-18T18:41:03.926Z,69.9454
2023-04-18T18:42:04.719Z,70.0807
2023-04-18T18:43:05.538Z,70.1575
2023-04-18T18:44:06.292Z,70.0576
2023-04-18T18:45:07.048Z,69.9483
2023-04-18T18:46:07.856Z,70.1288
2023-04-18T18:47:08.606Z,70.3372
2023-04-18T18:48:09.644Z,70.1690
2023-04-18T18:49:10.430Z,70.2262
2023-04-18T18:50:11.177Z,70.3193
2023-04-18T18:51:11.989Z,70.3693
2023-04-18T18:52:12.794Z,70.4954
2023-04-18T18:53:13.575Z,70.6743
2023-04-18T18:54:14.347Z,70.7414
2023-04-18T18:55:15.154Z,70.9477
2023-04-18T18:56:15.925Z,70.9325
2023-04-18T18:57:16.683Z,70.9337
2023-04-18T18:58:17.477Z,70.9775
2023-04-18T18:59:18.250Z,70.9812
2023-04-18T19:00:19.032Z,71.1966
2023-04-18T19:01:19.839Z,71.4157
2023-04-18T19:02:20.818Z,71.4155
2023-04-18T19:03:21.885Z,71.2741
2023-04-18T19:04:22.869Z,71.2333
2023-04-18T19:05:23.889Z,71.3726
2023-04-18T19:06:24.660Z,70.9339
2023-04-18T19:07:25.525Z,70.8215
2023-04-18T19:08:26.854Z,70.9571
2023-04-18T19:09:27.600Z,71.1542
2023-04-18T19:10:28.366Z,71.2788
2023-04-18T19:11:29.174Z,71.1717
2023-04-18T19:12:29.920Z,71.4426
2023-04-18T19:13:30.872Z,71.3653
2023-04-18T19:14:31.634Z,71.2722
2023-04-18T19:15:32.408Z,71.5123
2023-04-18T19:16:33.239Z,71.6377
2023-04-18T19:17:34.034Z,71.6335
2023-04-18T19:18:34.804Z,71.8954
2023-04-18T19:19:35.572Z,71.7966
2023-04-18T19:20:36.394Z,71.6042
2023-04-18T19:21:37.206Z,71.7687
2023-04-18T19:22:38.006Z,72.0537
2023-04-18T19:23:38.857Z,72.1237
2023-04-18T19:24:39.630Z,72.1986
2023-04-18T19:25:40.448Z,72.0331
2023-04-18T19:26:41.212Z,72.0580
2023-04-18T19:27:41.996Z,72.1392
2023-04-18T19:28:42.784Z,72.4395
2023-04-18T19:29:43.575Z,72.5422
2023-04-18T19:30:44.376Z,72.8048
2023-04-18T19:31:45.143Z,72.7716
2023-04-18T19:32:45.956Z,72.9257
2023-04-18T19:33:46.729Z,73.0040
2023-04-18T19:34:47.542Z,72.8575
2023-04-18T19:35:48.333Z,73.1025
2023-04-18T19:36:49.109Z,73.1508
2023-04-18T19:37:49.886Z,73.2694
2023-04-18T19:38:50.706Z,73.1322
2023-04-18T19:39:51.495Z,73.0304
2023-04-18T19:40:52.275Z,73.2142
2023-04-18T19:41:53.039Z,72.9154
2023-04-18T19:42:54.073Z,73.2431
2023-04-18T19:43:54.862Z,73.3260
2023-04-18T19:44:55.636Z,73.3382
2023-04-18T19:45:56.469Z,73.4354
2023-04-18T19:46:57.240Z,73.7061
2023-04-18T19:47:58.075Z,73.6780
2023-04-18T19:48:58.833Z,73.6742
2023-04-18T19:49:59.619Z,73.4207
2023-04-18T19:51:00.396Z,73.9840
2023-04-18T19:52:01.209Z,74.0414
2023-04-18T19:53:02.016Z,74.1585
2023-04-18T19:54:02.815Z,74.3860
2023-04-18T19:55:03.586Z,74.2619
2023-04-18T19:56:04.352Z,74.4191
2023-04-18T19:57:05.118Z,74.4772
2023-04-18T19:58:05.914Z,74.3986
2023-04-18T19:59:06.701Z,74.5375
2023-04-18T20:00:07.460Z,74.6238
2023-04-18T20:01:08.311Z,74.8179
2023-04-18T20:02:09.133Z,74.9037
2023-04-18T20:03:10.064Z,74.7980
2023-04-18T20:04:11.162Z,74.8448
2023-04-18T20:05:12.133Z,74.8915
2023-04-18T20:06:13.031Z,74.9920
2023-04-18T20:07:13.786Z,75.1270
2023-04-18T20:08:14.581Z,75.2067
2023-04-18T20:09:15.636Z,75.1920
2023-04-18T20:10:16.853Z,75.3038
2023-04-18T20:11:17.609Z,75.3762
2023-04-18T20:12:18.415Z,75.5149
2023-04-18T20:13:19.418Z,75.5499
2023-04-18T20:14:20.198Z,75.7383
2023-04-18T20:15:20.997Z,75.8689
2023-04-18T20:16:21.782Z,75.9700
2023-04-18T20:17:22.592Z,75.9694
2023-04-18T20:18:23.435Z,75.6639
2023-04-18T20:19:24.244Z,75.5651
2023-04-18T20:20:25.003Z,75.8147
2023-04-18T20:21:25.754Z,76.0125
2023-04-18T20:22:26.548Z,75.9249
2023-04-18T20:23:27.564Z,76.1463
2023-04-18T20:24:28.380Z,76.3016
2023-04-18T20:25:29.210Z,76.2001
2023-04-18T20:26:29.952Z,76.3613
2023-04-18T20:27:30.744Z,76.0805
2023-04-18T20:28:38.644Z,75.9412
2023-04-18T20:29:39.444Z,76.0731
2023-04-18T20:30:40.260Z,76.1637
2023-04-18T20:31:41.026Z,76.3425
2023-04-18T20:32:41.851Z,76.4595
2023-04-18T20:33:42.585Z,76.4303
2023-04-18T20:34:51.940Z,76.3044
2023-04-18T20:35:52.733Z,76.3748
2023-04-18T20:36:53.516Z,76.2439
2023-04-18T20:37:54.306Z,76.3411
2023-04-18T20:38:55.095Z,76.3535
2023-04-18T20:39:55.898Z,76.3326
2023-04-18T20:40:56.660Z,76.5434
2023-04-18T20:41:57.537Z,76.6068
2023-04-18T20:42:58.429Z,76.7418
2023-04-18T20:43:59.198Z,76.8583
2023-04-18T20:44:59.956Z,76.9320
2023-04-18T20:46:00.764Z,77.1677
2023-04-18T20:47:01.541Z,77.2295
2023-04-18T20:48:02.614Z,77.3347
2023-04-18T20:49:03.372Z,77.3100
2023-04-18T20:50:04.176Z,77.4710
2023-04-18T20:51:04.979Z,77.4128
2023-04-18T20:52:05.769Z,77.1775
2023-04-18T20:53:06.529Z,77.1205
2023-04-18T20:54:07.305Z,77.0590
2023-04-18T20:55:08.089Z,77.2863
2023-04-18T20:56:08.951Z,77.4058
2023-04-18T20:57:09.714Z,77.3434
2023-04-18T20:58:10.523Z,77.5049
2023-04-18T20:59:11.310Z,77.5056
2023-04-18T21:00:12.068Z,77.7269
2023-04-18T21:01:12.898Z,77.7103
2023-04-18T21:02:13.795Z,77.8379
2023-04-18T21:03:14.667Z,77.8084
2023-04-18T21:04:15.923Z,77.5946
2023-04-18T21:05:17.557Z,77.7827
2023-04-18T21:06:18.326Z,77.6724
2023-04-18T21:07:19.097Z,77.7795
2023-04-18T21:08:20.145Z,77.9312
2023-04-18T21:09:20.936Z,78.0155
2023-04-18T21:10:21.701Z,77.9507
2023-04-18T21:11:22.453Z,77.8824
2023-04-18T21:12:23.248Z,77.8919
2023-04-18T21:13:24.035Z,77.8021
2023-04-18T21:14:24.824Z,78.1612
2023-04-18T21:15:25.872Z,78.1615
2023-04-18T21:16:26.699Z,78.0032
2023-04-18T21:17:27.473Z,77.9153
2023-04-18T21:18:28.514Z,77.9489
2023-04-18T21:19:29.299Z,78.0492
2023-04-18T21:20:30.117Z,77.9964
2023-04-18T21:21:30.910Z,77.9841
2023-04-18T21:22:31.663Z,78.1981
2023-04-18T21:23:32.458Z,78.3831
2023-04-18T21:24:33.212Z,78.5186
2023-04-18T21:25:34.225Z,78.5861
2023-04-18T21:26:35.021Z,78.5400
2023-04-18T21:27:35.802Z,78.1238
2023-04-18T21:28:36.790Z,78.1588
2023-04-18T21:29:37.553Z,78.1505
2023-04-18T21:30:38.345Z,78.3702
2023-04-18T21:31:39.171Z,78.5876
2023-04-18T21:32:39.927Z,78.5301
2023-04-18T21:33:40.691Z,78.6627
2023-04-18T21:34:42.420Z,78.8550
2023-04-18T21:35:43.187Z,78.8637
2023-04-18T21:36:44.002Z,78.8846
2023-04-18T21:37:44.754Z,79.1032
2023-04-18T21:38:45.533Z,79.1894
2023-04-18T21:39:46.311Z,78.9951
2023-04-18T21:40:47.080Z,78.8949
2023-04-18T21:41:47.858Z,79.1071
2023-04-18T21:42:49.881Z,78.8975
2023-04-18T21:43:50.732Z,79.0859
2023-04-18T21:44:51.489Z,79.1732
2023-04-18T21:45:52.366Z,79.1608
2023-04-18T21:46:53.114Z,79.1236
2023-04-18T21:47:54.166Z,79.0794
2023-04-18T21:48:54.916Z,79.2410
2023-04-18T21:49:55.708Z,79.3195
2023-04-18T21:50:56.712Z,79.4817
2023-04-18T21:51:57.486Z,79.5978
2023-04-18T21:52:58.290Z,79.7907
2023-04-18T21:53:59.080Z,79.7550
2023-04-18T21:54:59.860Z,79.4583
2023-04-18T21:56:00.640Z,79.4317
2023-04-18T21:57:01.423Z,79.5495
2023-04-18T21:58:03.226Z,79.6934
2023-04-18T21:59:04.023Z,79.5923
2023-04-18T22:00:04.778Z,79.8706
2023-04-18T22:01:05.847Z,79.8900
2023-04-18T22:02:06.845Z,79.7226
2023-04-18T22:03:07.901Z,79.8624
2023-04-18T22:04:08.884Z,79.8100
2023-04-18T22:05:09.765Z,80.1577
2023-04-18T22:06:10.558Z,80.2651
2023-04-18T22:07:11.340Z,80.1344
2023-04-18T22:08:12.155Z,80.1468
2023-04-18T22:09:12.967Z,80.1935
2023-04-18T22:10:13.747Z,80.2650
2023-04-18T22:11:14.526Z,80.2117
2023-04-18T22:12:15.301Z,80.2192
2023-04-18T22:13:16.103Z,80.3288
2023-04-18T22:14:17.019Z,80.2549
2023-04-18T22:15:17.801Z,80.3971
2023-04-18T22:16:18.829Z,80.6421
2023-04-18T22:17:19.628Z,80.6453
2023-04-18T22:18:20.420Z,80.6041
2023-04-18T22:19:21.230Z,80.5134
2023-04-18T22:20:22.022Z,80.7157
2023-04-18T22:21:22.823Z,80.8025
2023-04-18T22:22:23.668Z,80.9033
2023-04-18T22:23:24.491Z,80.8783
2023-04-18T22:24:25.289Z,81.0627
2023-04-18T22:25:26.104Z,81.0828
2023-04-18T22:26:26.915Z,80.9676
2023-04-18T22:27:27.719Z,80.9370
2023-04-18T22:28:28.787Z,81.0604
2023-04-18T22:29:29.583Z,81.2877
2023-04-18T22:30:30.473Z,81.3168
2023-04-18T22:31:31.388Z,81.0572
2023-04-18T22:32:32.200Z,80.7971
2023-04-18T22:33:32.955Z,80.9567
2023-04-18T22:34:33.787Z,80.9775
2023-04-18T22:35:34.622Z,81.1749
2023-04-18T22:36:35.982Z,81.0988
2023-04-18T22:37:36.772Z,81.2954
2023-04-18T22:38:37.590Z,81.5552
2023-04-18T22:39:38.422Z,81.7692
2023-04-18T22:40:39.241Z,81.6490
2023-04-18T22:41:40.089Z,81.6607
2023-04-18T22:42:40.891Z,81.6772
2023-04-18T22:43:41.735Z,81.6902
2023-04-18T22:44:42.553Z,81.8756
2023-04-18T22:45:43.435Z,81.9504
2023-04-18T22:46:44.281Z,81.8029
2023-04-18T22:47:45.250Z,81.6866
2023-04-18T22:48:46.138Z,81.6138
2023-04-18T22:49:46.925Z,81.7334
2023-04-18T22:50:47.723Z,81.8496
2023-04-18T22:51:48.586Z,81.9192
2023-04-18T22:52:49.437Z,81.8042
2023-04-18T22:53:50.288Z,81.8411
2023-04-18T22:54:51.135Z,81.9214
2023-04-18T22:55:52.164Z,81.9994
2023-04-18T22:56:52.991Z,81.9713
2023-04-18T22:57:53.795Z,82.0623
2023-04-18T22:58:54.633Z,81.9031
2023-04-18T22:59:55.425Z,81.8437
2023-04-18T23:00:56.254Z,81.8353
2023-04-18T23:01:57.138Z,81.9357
2023-04-18T23:02:58.361Z,81.8896
2023-04-18T23:03:59.266Z,81.8621
2023-04-18T23:05:00.144Z,81.6927
2023-04-18T23:06:01.036Z,81.6743
2023-04-18T23:07:01.881Z,81.7919
2023-04-18T23:08:02.991Z,81.8722
2023-04-18T23:09:03.904Z,81.9662
2023-04-18T23:10:04.725Z,82.0136
2023-04-18T23:11:05.551Z,82.1684
2023-04-18T23:12:06.406Z,82.0326
2023-04-18T23:13:07.232Z,82.0397
2023-04-18T23:14:08.035Z,82.0242
2023-04-18T23:15:08.874Z,82.1076
2023-04-18T23:16:09.942Z,82.1452
2023-04-18T23:17:10.824Z,82.0952
2023-04-18T23:18:11.892Z,82.0437
2023-04-18T23:19:12.722Z,81.9778
2023-04-18T23:20:13.557Z,81.9033
2023-04-18T23:21:14.353Z,81.9439
2023-04-18T23:22:15.154Z,82.0296
2023-04-18T23:23:15.976Z,82.1589
2023-04-18T23:24:16.962Z,82.2319
2023-04-18T23:25:17.838Z,82.2740
2023-04-18T23:26:18.920Z,82.2787
2023-04-18T23:27:19.782Z,82.2206
2023-04-18T23:28:20.736Z,82.2358
2023-04-18T23:29:21.517Z,82.1742
2023-04-18T23:30:22.353Z,82.2069
2023-04-18T23:31:23.193Z,82.1535
2023-04-18T23:32:24.108Z,82.1308
2023-04-18T23:33:24.944Z,82.0914
2023-04-18T23:34:25.741Z,82.1608
2023-04-18T23:35:26.534Z,82.1547
2023-04-18T23:36:27.379Z,82.0887
2023-04-18T23:37:28.213Z,81.9072
2023-04-18T23:38:29.016Z,81.9258
2023-04-18T23:39:29.829Z,82.0352
2023-04-18T23:40:30.668Z,82.1574
2023-04-18T23:41:31.470Z,82.2143
2023-04-18T23:42:32.293Z,82.3004
2023-04-18T23:43:33.347Z,82.2177
2023-04-18T23:44:34.175Z,82.2264
2023-04-18T23:45:35.011Z,82.1678
2023-04-18T23:46:36.704Z,82.2231
2023-04-18T23:47:37.643Z,82.1892
2023-04-18T23:48:40.208Z,82.2127
2023-04-18T23:49:41.014Z,82.2687
2023-04-18T23:50:41.853Z,82.2372
2023-04-18T23:51:42.676Z,82.3563
2023-04-18T23:52:43.546Z,82.4870
2023-04-18T23:53:44.651Z,82.4776
2023-04-18T23:54:45.474Z,82.4335
2023-04-18T23:55:46.288Z,82.2586
2023-04-18T23:56:47.099Z,82.2361
2023-04-18T23:57:47.951Z,82.3453
2023-04-18T23:58:48.774Z,82.3229
2023-04-18T23:59:49.584Z,82.3810
